Polarstern — DBLK — position and weather

sailwx.info

Track history (hours):
 
Tides and Currents Weather Stations Pressure Air Temp Water Temp Dewpoint Dewpoint Depression Visibility Wind Speed Wind Dir Waves Ship Positions

Oceanographic research ship Polarstern (Germany)

Detailed information on ship capabilities available from University of Delaware's Ocean Information Center and ARCUS's ALIAS (Arctic Logistics Information and Support) project.

Last reported at 2017-Jun-25 04:00 UTC. Time now 2017-Jun-25 05:20 UTC.
Position N 77°24' E 028°48'.

Length 117.9 m; beam 25 m; draft 10.7 m.

MMSI: 211202460.

Wind from 110 at 6 knots

Barometer 1010.9 mb
Air temperature -1.2 ° C
Dewpoint -2.0 ° C
Water temperature -0.8 ° C

Date/timePositionNaut miles runAvg speedWind from/ knotsBaromVisibWave heightAir tempDewpointWater temp
2017-Jun-25 04:00N 77°24' E 028°48'1313.1 110 / 61010.9 -1.2-2.0-0.8
2017-Jun-25 03:00N 77°12' E 028°24'9 9.0 060 / 81010.7 -1.1-1.6 1.1
2017-Jun-25 02:00N 77°06' E 027°54'7 7.2 050 / 81010.7 -1.3-1.3-0.2
2017-Jun-25 01:00N 77°00' E 027°36'7 7.2 020 / 81010.7 -1.1-1.2-0.4
2017-Jun-25 00:00N 76°54' E 027°18'1312.7 020 / 101010.5 -0.3-0.6 1.8
2017-Jun-24 23:00N 76°42' E 027°00'7 6.6 020 / 101010.4 -0.5-0.7-0.7
2017-Jun-24 22:00N 76°36' E 026°48'7 7.3 010 / 81010.4 -0.8-0.8-0.7
2017-Jun-24 21:00N 76°30' E 026°30'7 7.3 010 / 101010.3 -0.9-1.6-1.1
2017-Jun-24 20:00N 76°24' E 026°12'1312.7 020 / 121010.0 -0.2-2.7 1.7
2017-Jun-24 19:00N 76°12' E 025°54'1010.0 050 / 121010.0 0.2-1.8 1.8
2017-Jun-24 18:00N 76°12' E 025°12'9 8.6 040 / 121010.010.8 -0.7-2.1-0.8
2017-Jun-24 17:00N 76°12' E 024°36'1010.0 020 / 101010.0 -0.7-1.9-0.7
2017-Jun-24 16:00N 76°12' E 023°54'1111.4 050 / 81010.1 -0.6-2.3-0.1
2017-Jun-24 15:00N 76°12' E 023°06'1010.0 080 / 81010.310.8 -0.6-1.7-0.5
2017-Jun-24 14:00N 76°12' E 022°24'1010.0 070 / 61010.1 -0.5-1.5 0.8
2017-Jun-24 13:00N 76°12' E 021°42'1111.4 070 / 61009.9 0.4-0.8 1.6
2017-Jun-24 12:00N 76°12' E 020°54'9 8.6 080 / 61010.010.8 0.7-0.3 1.8
2017-Jun-24 11:00N 76°12' E 020°18'6 5.7 050 / 81009.8 1.2 0.6 1.7
2017-Jun-24 10:00N 76°12' E 019°54'3 2.9 040 / 81009.8 1.4 0.3 3.6
2017-Jun-24 09:00N 76°12' E 019°42'1010.0 070 / 81009.910.8 1.5 0.3 3.6
2017-Jun-24 08:00N 76°12' E 019°00'1111.4 080 / 81009.8 1.8-0.3 4.0
2017-Jun-24 07:00N 76°12' E 018°12'1010.0 110 / 81009.7 2.5-0.6 3.9
2017-Jun-24 06:00N 76°12' E 017°30'1010.0 070 / 41009.910.8 2.2 0.7 3.4
2017-Jun-24 05:00N 76°12' E 016°48'9 8.6 090 / 41009.7 2.8 0.4 4.7
2017-Jun-24 04:00N 76°12' E 016°12'1413.9 140 / 61010.0 2.6 1.1 3.0
2017-Jun-24 03:00N 76°24' E 015°42'9 9.2 180 / 61010.1 2.8 1.3 4.4
2017-Jun-24 02:00N 76°30' E 015°12'8 8.2 330 / 21010.3 3.1 2.6 3.9
2017-Jun-24 01:00N 76°36' E 014°48'1413.8 330 / 61010.5 3.4 2.7 3.7
2017-Jun-24 00:00N 76°48' E 014°18'8 8.1 340 / 101010.8 3.6 2.2 2.1
2017-Jun-23 23:00N 76°54' E 013°54'1313.2 330 / 121010.9 3.9 2.2 3.4
2017-Jun-23 22:00N 77°06' E 013°30'9 9.0 340 / 101011.1 3.7 2.4 4.4
2017-Jun-23 21:00N 77°12' E 013°00'1212.3 330 / 121011.6 4.0 2.2 4.0
2017-Jun-23 20:00N 77°24' E 012°48'7 6.5 320 / 141011.8 3.6 1.6 4.5
2017-Jun-23 19:00N 77°30' E 012°36'1312.6 320 / 141012.0 3.6 1.6 5.1
2017-Jun-23 18:00N 77°42' E 012°18'1212.3 320 / 141012.210.8 3.8 2.2 5.3
2017-Jun-23 17:00N 77°54' E 012°06'1110.6 320 / 171012.4 3.7 1.6 4.3
2017-Jun-23 16:00N 78°00' E 012°48'10 9.6 320 / 161011.9 3.8 2.2 5.3
2017-Jun-23 15:00N 78°06' E 013°24'1211.5 300 / 121011.710.8 3.7 1.8 4.2
2017-Jun-23 14:00N 78°12' E 014°12'10 9.8 240 / 81011.9 5.3 1.7 4.9
2017-Jun-23 13:00N 78°12' E 015°00'9 8.6 230 / 41012.1 5.3 0.3 5.0
2017-Jun-23 12:00N 78°12' E 015°42'0 0.0 310 / 101011.9 5.0 0.1 3.1
2017-Jun-23 11:00N 78°12' E 015°42'0 0.0 310 / 101011.9 4.8 0.9 3.5
2017-Jun-23 10:00N 78°12' E 015°42'0 0.0 310 / 101011.8 4.6 0.8 3.4
2017-Jun-23 09:00N 78°12' E 015°42'0 0.0 310 / 101011.8 4.3 0.6 3.5
2017-Jun-23 08:00N 78°12' E 015°42'0 0.0 300 / 61011.8 4.5 0.1 3.5
2017-Jun-23 07:00N 78°12' E 015°42'0 0.0 300 / 81011.6 4.2-0.3 3.4
2017-Jun-23 06:00N 78°12' E 015°42'0 0.0 300 / 61011.5 4.0-0.6 3.4
2017-Jun-23 05:00N 78°12' E 015°42'0 0.0 300 / 61011.6 3.9-0.8 3.5
2017-Jun-23 04:00N 78°12' E 015°42'0 0.0 300 / 61011.7 3.9-1.0 3.7
2017-Jun-23 03:00N 78°12' E 015°42'0 0.0 320 / 41011.5 3.9-1.4 3.6
2017-Jun-23 02:00N 78°12' E 015°42'0 0.0 270 / 41011.5 3.9-1.0 3.7
2017-Jun-23 01:00N 78°12' E 015°42'0 0.0 250 / 61011.5 3.8-0.8 3.9
2017-Jun-23 00:00N 78°12' E 015°42'0 0.0 260 / 41011.3 3.8-0.9 3.9
2017-Jun-22 23:00N 78°12' E 015°42'0 0.0 260 / 61011.2 3.8-1.4 3.8
2017-Jun-22 22:00N 78°12' E 015°42'0 0.0 350 / 21011.2 3.9-1.2 3.8
2017-Jun-22 21:00N 78°12' E 015°42'0 0.0 290 / 61011.3 3.7-0.7 3.9
2017-Jun-22 20:00N 78°12' E 015°42'0 0.0 280 / 81011.6 3.7-0.4 3.8
2017-Jun-22 19:00N 78°12' E 015°42'0 0.0 290 / 101011.6 3.7-0.8 4.6
2017-Jun-22 18:00N 78°12' E 015°42'0 0.0 280 / 101011.6 3.8-0.8 4.8
2017-Jun-22 17:00N 78°12' E 015°42'0 0.0 280 / 101011.8 4.1-0.9 4.7
2017-Jun-22 16:00N 78°12' E 015°42'0 0.0 270 / 101011.9 3.9-1.0 4.8
2017-Jun-22 15:00N 78°12' E 015°42'0 0.0 290 / 121011.9 3.8-0.9 4.9
2017-Jun-22 14:00N 78°12' E 015°42'0 0.0 300 / 121012.1 3.7-1.1 4.9
2017-Jun-22 13:00N 78°12' E 015°42'0 0.0 280 / 121012.2 3.9-1.0 4.9
2017-Jun-22 12:00N 78°12' E 015°42'0 0.0 270 / 121012.5 3.6-1.3 4.8
2017-Jun-22 11:00N 78°12' E 015°42'0 0.0 270 / 141012.4 3.4-1.8 5.1
2017-Jun-22 10:00N 78°12' E 015°42'0 0.0 260 / 161012.4 3.1-1.7 5.2
2017-Jun-22 09:00N 78°12' E 015°42'0 0.0 250 / 141012.5 3.2-1.5 5.2
2017-Jun-22 08:00N 78°12' E 015°42'0 0.0 250 / 121012.5 3.1-1.4 5.2
2017-Jun-22 07:00N 78°12' E 015°42'0 0.0 240 / 121012.7 3.3-1.2 5.1
2017-Jun-22 06:00N 78°12' E 015°42'0 0.0 250 / 101012.8 3.0-1.2 4.1
2017-Jun-22 05:00N 78°12' E 015°42'0 0.0 250 / 121013.1 2.9-1.0 3.8
2017-Jun-22 04:00N 78°12' E 015°42'0 0.0 250 / 161013.0 2.8-0.4 4.2
2017-Jun-22 03:00N 78°12' E 015°42'0 0.0 260 / 141012.8 3.0-0.1 4.4
2017-Jun-22 02:00N 78°12' E 015°42'0 0.0 250 / 101013.0 3.2-0.6 5.0
2017-Jun-22 01:00N 78°12' E 015°42'0 0.0 260 / 141013.1 3.3-0.5 5.1
2017-Jun-22 00:00N 78°12' E 015°42'0 0.0 240 / 141013.0 3.6-0.0 4.4
2017-Jun-21 23:00N 78°12' E 015°42'0 0.0 240 / 141013.3 3.9-0.3 3.7
2017-Jun-21 22:00N 78°12' E 015°42'0 0.0 250 / 121013.0 4.5-0.3 3.4
2017-Jun-21 21:00N 78°12' E 015°42'0 0.0 220 / 41012.8 5.3 0.1 3.2
2017-Jun-21 20:00N 78°12' E 015°42'0 0.0 230 / 81012.6 5.6-0.3 3.1
2017-Jun-21 19:00N 78°12' E 015°42'0 0.0 230 / 141012.7 5.6-0.4 3.0
2017-Jun-21 18:00N 78°12' E 015°42'0 0.0 250 / 161012.8 5.5-0.2 3.1
2017-Jun-21 17:00N 78°12' E 015°42'0 0.0 230 / 191012.7 5.6 0.1 3.1
2017-Jun-21 16:00N 78°12' E 015°42'0 0.0 230 / 161012.7 5.7 0.7 3.4
2017-Jun-21 15:00N 78°12' E 015°42'0 0.0 300 / 121013.0 6.5-0.7 3.4
2017-Jun-21 14:00N 78°12' E 015°42'0 0.0 300 / 141012.7 6.2-0.4 3.3
2017-Jun-21 13:00N 78°12' E 015°42'0 0.0 310 / 141012.9 6.0-1.5 3.4
2017-Jun-21 12:00N 78°12' E 015°42'0 0.0 310 / 101012.5 5.6-0.4 3.4
2017-Jun-21 11:00N 78°12' E 015°42'0 0.0 320 / 121012.3 5.4-0.0 3.3
2017-Jun-21 10:00N 78°12' E 015°42'0 0.0 300 / 101011.9 5.6-0.0 3.3
2017-Jun-21 09:00N 78°12' E 015°42'0 0.0 300 / 101012.0 5.7-0.1 3.0
2017-Jun-21 08:00N 78°12' E 015°42'0 0.0 300 / 81011.8 5.3 0.1 2.7
2017-Jun-21 07:00N 78°12' E 015°42'0 0.0 330 / 81011.8 5.1-0.1 2.5
2017-Jun-21 06:00N 78°12' E 015°42'8 7.7 330 / 81011.6 4.9 1.3 2.8
2017-Jun-21 05:00N 78°18' E 015°18'9 8.6 230 / 81011.6 4.4 2.4 4.7
2017-Jun-21 04:00N 78°12' E 014°48'6 6.1 230 / 81011.3 4.5 2.8 4.2
2017-Jun-21 03:00N 78°12' E 014°18'9 8.6 210 / 61011.2 4.1 2.1 3.7
2017-Jun-21 02:00N 78°06' E 013°48'5 4.9 310 / 121011.2 3.7 1.6 3.9
2017-Jun-21 01:00N 78°06' E 013°24'6 6.2 320 / 171011.0 2.8 1.1 3.2
2017-Jun-21 00:00N 78°06' E 012°54'6 6.2 320 / 171011.3 3.0 1.1 4.2
2017-Jun-20 23:00N 78°06' E 012°24'6 6.2 320 / 171011.3 2.9 1.5 4.7
2017-Jun-20 22:00N 78°06' E 011°54'6 6.2 320 / 191011.2 2.6 1.0 5.0
2017-Jun-20 21:00N 78°06' E 011°24'5 4.9 320 / 161011.3 2.7 1.4 5.1
2017-Jun-20 20:00N 78°06' E 011°00'7 7.0 330 / 161011.3 2.8 1.2 3.8
2017-Jun-20 19:00N 78°12' E 010°42'8 7.7 330 / 161011.3 2.9 1.0 4.7
2017-Jun-20 18:00N 78°18' E 010°18'4 3.7 340 / 171011.210.8 3.0 0.7 4.4
2017-Jun-20 17:00N 78°18' E 010°00'6 6.5 340 / 161011.0 4.5-0.0 4.5
2017-Jun-20 16:00N 78°24' E 009°48'6 6.1 330 / 171011.0 3.6-0.4 3.5
2017-Jun-20 15:00N 78°30' E 009°42'6 6.5 320 / 171010.910.8 3.9-0.6 4.6
2017-Jun-20 14:00N 78°36' E 009°30'6 6.1 320 / 141010.9 3.2 0.6 4.1
2017-Jun-20 13:00N 78°42' E 009°24'6 6.0
2017-Jun-20 12:00N 78°48' E 009°24'6 6.0 340 / 141010.410.8 2.3 0.4 4.6
2017-Jun-20 11:00N 78°54' E 009°24'6 6.1 350 / 141010.3 1.8-0.2 4.7
2017-Jun-20 10:00N 79°00' E 009°18'0 0.0 350 / 161010.0 1.5-0.6 4.7
2017-Jun-20 09:00N 79°00' E 009°18'0 0.0 350 / 171009.610.8 1.5-0.7 4.8
2017-Jun-20 08:00N 79°00' E 009°18'0 0.0 350 / 171009.1 1.5-0.9 4.7
2017-Jun-20 07:00N 79°00' E 009°18'0 0.0 350 / 211008.6 1.7-0.2 4.8
2017-Jun-20 06:00N 79°00' E 009°18'3 3.4 350 / 191008.210.8 1.7-0.4 4.8
2017-Jun-20 05:00N 79°00' E 009°00'7 6.9 360 / 191007.9 1.5-1.0 5.2
2017-Jun-20 04:00N 78°54' E 008°42'3 3.5 350 / 191008.3 1.3-1.1 4.7
2017-Jun-20 03:00N 78°54' E 008°24'5 4.6 350 / 191008.4 1.3-1.0 5.4
2017-Jun-20 02:00N 78°54' E 008°00'5 4.6 350 / 191008.6 1.1-0.7 5.7
2017-Jun-20 01:00N 78°54' E 007°36'3 3.5 350 / 141008.7 1.8-0.6 5.7
2017-Jun-20 00:00N 78°54' E 007°18'7 6.9 350 / 141008.8 1.3-0.6 3.8
2017-Jun-19 23:00N 78°48' E 007°00'2 2.3 360 / 161008.9 1.5-0.8 5.8
2017-Jun-19 22:00N 78°48' E 006°48'3 3.5 340 / 141008.9 1.8-0.4 5.8
2017-Jun-19 21:00N 78°48' E 006°30'3 3.5 340 / 121009.2 0.7 0.1 5.8
2017-Jun-19 20:00N 78°48' E 006°12'3 3.5 340 / 121009.1 0.6-0.1 5.9
2017-Jun-19 19:00N 78°48' E 005°54'7 7.0 330 / 141009.3 0.2-0.3 5.8
2017-Jun-19 18:00N 78°42' E 005°36'4 3.5 320 / 121009.410.8 -0.0-0.5 4.1
2017-Jun-19 17:00N 78°42' E 005°18'4 3.5 330 / 101009.6 -0.9-1.1 4.5
2017-Jun-19 16:00N 78°42' E 005°00'4 3.5 340 / 81009.7 0.1-0.4 4.2
2017-Jun-19 15:00N 78°42' E 004°42'1 1.2 340 / 101009.6 1.1 -1.0-1.1 4.2
2017-Jun-19 14:00N 78°42' E 004°36'0 0.0 350 / 101009.5 -1.3-1.6 4.3
2017-Jun-19 13:00N 78°42' E 004°36'6 6.4 350 / 81009.5 -0.8-1.3 4.4
2017-Jun-19 12:00N 78°36' E 004°24'6 6.0 350 / 141009.210.8 -0.0-0.9 4.5
2017-Jun-19 11:00N 78°30' E 004°24'6 6.0 360 / 161009.0 0.1-0.4 3.9
2017-Jun-19 10:00N 78°24' E 004°24'6 6.5 360 / 161008.6 0.2-0.8 5.4
2017-Jun-19 09:00N 78°30' E 004°12'4 3.6 350 / 101008.810.8 0.1-0.8 4.7
2017-Jun-19 08:00N 78°30' E 003°54'6 6.5 010 / 81008.5 -0.0-1.0 1.6
2017-Jun-19 07:00N 78°36' E 003°42'6 6.4 340 / 61008.5 1.1-0.6 3.3
2017-Jun-19 06:00N 78°42' E 003°30'5 4.7 280 / 41008.310.8 -0.2-1.4 2.7
2017-Jun-19 05:00N 78°42' E 003°54'8 7.6 020 / 61008.4 -0.2-1.5 4.5
2017-Jun-19 04:00N 78°48' E 004°18'8 8.3 340 / 61008.3 -1.0-2.0 4.2
2017-Jun-19 03:00N 78°54' E 004°48'8 8.3 320 / 81008.3 -1.6-2.4 0.6
2017-Jun-19 02:00N 79°00' E 005°18'7 6.9 320 / 81008.4 -1.6-2.1 3.6
2017-Jun-19 01:00N 79°06' E 005°36'10 9.9 310 / 61008.4 -0.8-0.9 4.9
2017-Jun-19 00:00N 79°12' E 006°18'9 9.0 330 / 61008.5 1.2-0.1 5.5
2017-Jun-18 23:00N 79°18' E 006°54'7 7.5 030 / 41008.6 0.5-0.3 2.6
2017-Jun-18 22:00N 79°24' E 007°18'7 7.4 030 / 81008.4 0.8-0.4 2.1
2017-Jun-18 21:00N 79°30' E 007°42'7 6.8 020 / 81008.3 0.2-0.4 3.3
2017-Jun-18 20:00N 79°36' E 008°00'6 6.4 030 / 81008.5 0.4-0.4 1.9
2017-Jun-18 19:00N 79°42' E 008°12'7 7.4 030 / 81008.3 0.8-0.0-0.3
2017-Jun-18 18:00N 79°48' E 008°36'7 7.3 030 / 81008.310.8 2.3-0.4 1.5
2017-Jun-18 17:00N 79°54' E 009°00'8 8.0 060 / 61008.6 0.8-0.7 3.2
2017-Jun-18 16:00N 80°00' E 009°30'6 6.1 030 / 61008.6 -0.0-1.2 1.1
2017-Jun-18 15:00N 80°06' E 009°36'2 2.1 020 / 81008.8 5.4 -1.8-1.8 3.4
2017-Jun-18 14:00N 80°06' E 009°48'4 4.1 040 / 41008.7 -0.1-1.9-0.7
2017-Jun-18 13:00N 80°06' E 010°12'8 7.9 040 / 21008.8 -0.6-1.5 0.4
2017-Jun-18 12:00N 80°12' E 010°42'0 0.0 150 / 41008.627.0 1.0-1.4 1.8
2017-Jun-18 11:00N 80°12' E 010°42'1 1.0 140 / 21008.6 2.2-1.4 1.5
2017-Jun-18 10:00N 80°12' E 010°48'7 7.2 200 / 41008.3 0.8-1.4 3.7
2017-Jun-18 09:00N 80°18' E 011°12'4 4.0 220 / 41008.227.0 0.6-1.8 3.0
2017-Jun-18 08:00N 80°18' E 011°36'0 0.0 250 / 21008.1 0.4-1.4 3.2
2017-Jun-18 07:00N 80°18' E 011°36'6 6.1 240 / 41008.0 -0.4-2.8 2.7
2017-Jun-18 06:00N 80°24' E 011°30'6 6.1 250 / 61007.810.8 -0.9-1.9 0.8
2017-Jun-18 05:00N 80°30' E 011°24'0 0.0 240 / 81007.6 -1.0-1.8-0.5
2017-Jun-18 04:00N 80°30' E 011°24'0 0.0 230 / 81007.6 -1.1-1.9-0.6
2017-Jun-18 03:00N 80°30' E 011°24'6 6.1 220 / 81007.6 -1.4-2.0-1.7
2017-Jun-18 02:00N 80°36' E 011°18'1 1.0 230 / 101007.9 -1.4-2.1-1.6
2017-Jun-18 01:00N 80°36' E 011°12'1 1.0 230 / 101008.1 -1.6-2.2-1.7
2017-Jun-18 00:00N 80°36' E 011°06'1 1.0 220 / 81008.0 -1.5-1.6-1.7
2017-Jun-17 23:00N 80°36' E 011°00'6 6.3 220 / 101007.9 -1.8-2.0-1.7
2017-Jun-17 22:00N 80°42' E 010°48'2 1.9 220 / 101007.7 -1.7-2.2-1.7
2017-Jun-17 21:00N 80°42' E 011°00'6 6.1 230 / 101007.9 -1.8-2.9-1.7
2017-Jun-17 20:00N 80°48' E 010°54'0 0.0 230 / 101007.9 -1.7-3.0-1.7
2017-Jun-17 19:00N 80°48' E 010°54'1 1.0 230 / 101008.0 -1.6-2.8-1.7
2017-Jun-17 18:00N 80°48' E 010°48'7 6.6 230 / 81007.910.8 -1.8-2.6-1.7
2017-Jun-17 17:00N 80°54' E 010°30'6 6.3 250 / 101008.2 -1.8-3.9-1.7
2017-Jun-17 16:00N 81°00' E 010°18'1 0.9 230 / 101008.3 -1.8-3.5-1.7
2017-Jun-17 15:00N 81°00' E 010°24'0 0.0 230 / 61008.710.8 -2.1-4.0-1.6
2017-Jun-17 14:00N 81°00' E 010°24'0 0.0 250 / 121008.6 -2.6-4.5-1.5
2017-Jun-17 13:00N 81°00' E 010°24'0 0.0 260 / 121008.9 -2.4-4.3-1.7
2017-Jun-17 12:00N 81°00' E 010°24'1 0.9 260 / 101008.810.8 -2.3-4.1-1.7
2017-Jun-17 11:00N 81°00' E 010°30'0 0.0 260 / 101009.1 -2.4-4.6-1.7
2017-Jun-17 10:00N 81°00' E 010°30'0 0.0 250 / 101008.9 -2.1-3.5-1.7
2017-Jun-17 09:00N 81°00' E 010°30'0 0.0 260 / 101009.110.8 -2.2-3.5-1.7
2017-Jun-17 08:00N 81°00' E 010°30'6 6.3 270 / 121009.2 -2.4-4.0-1.7
2017-Jun-17 07:00N 81°06' E 010°18'1 0.9 250 / 101009.2 -2.8-4.0-1.7
2017-Jun-17 06:00N 81°06' E 010°12'1 0.9 250 / 101009.310.8 -2.6-3.5-1.8
2017-Jun-17 05:00N 81°06' E 010°06'6 6.1 260 / 121009.2 -2.4-3.4-1.7
2017-Jun-17 04:00N 81°12' E 010°00'1 0.9 270 / 121009.3 -2.2-3.3-1.7
2017-Jun-17 03:00N 81°12' E 010°06'0 0.0 270 / 101009.3 -1.9-3.3-1.7
2017-Jun-17 02:00N 81°12' E 010°06'6 6.1 260 / 101009.5 -1.8-3.6-1.7
2017-Jun-17 01:00N 81°18' E 010°00'0 0.0 250 / 101009.7 -1.8-3.8-1.7
2017-Jun-17 00:00N 81°18' E 010°00'1 0.9 260 / 101009.7 -1.7-3.7-1.7
2017-Jun-16 23:00N 81°18' E 010°06'6 6.3 260 / 101009.5 -1.7-3.8-1.7
2017-Jun-16 22:00N 81°24' E 009°54'1 0.9 260 / 101009.5 -1.5-3.7-1.7
2017-Jun-16 21:00N 81°24' E 010°00'6 6.1 260 / 81009.5 -1.6-3.8-1.8
2017-Jun-16 20:00N 81°30' E 010°06'1 0.9 270 / 81009.3 -1.5-4.2-1.8
2017-Jun-16 19:00N 81°30' E 010°12'6 6.1 280 / 61009.1 -1.4-4.2-1.7
2017-Jun-16 18:00N 81°36' E 010°06'2 1.8 300 / 41009.210.8 -1.6-3.5-1.8
2017-Jun-16 17:00N 81°36' E 010°18'6 6.2 330 / 61009.1 -1.8-3.7-1.8
2017-Jun-16 16:00N 81°42' E 010°30'1 0.9 360 / 81008.9 -1.8-4.0-1.8
2017-Jun-16 15:00N 81°42' E 010°24'1 0.9 340 / 81008.6 5.4 -2.2-5.2-1.7
2017-Jun-16 14:00N 81°42' E 010°30'0 0.0 330 / 101008.6 -2.2-4.5-1.8
2017-Jun-16 13:00N 81°42' E 010°30'0 0.0 340 / 101008.6 -2.0-4.2-1.8
2017-Jun-16 12:00N 81°42' E 010°30'0 0.0 340 / 101008.410.8 -2.0-4.3-1.8
2017-Jun-16 11:00N 81°42' E 010°30'0 0.0 330 / 81008.1 -1.8-4.2-1.8
2017-Jun-16 10:00N 81°42' E 010°30'0 0.0 340 / 61007.7 -1.7-4.2-1.8
2017-Jun-16 09:00N 81°42' E 010°30'0 0.0 360 / 61007.410.8 -1.6-4.6-1.7
2017-Jun-16 08:00N 81°42' E 010°30'0 0.0 030 / 61007.1 -1.8-3.6-1.8
2017-Jun-16 07:00N 81°42' E 010°30'0 0.0 040 / 81006.7 -1.8-3.3-1.8
2017-Jun-16 06:00N 81°42' E 010°30'0 0.0 040 / 101006.4 5.4 -2.0-2.7-1.8
2017-Jun-16 05:00N 81°42' E 010°30'0 0.0 030 / 101005.9 -1.9-2.7-1.8
2017-Jun-16 04:00N 81°42' E 010°30'0 0.0 030 / 101005.6 -1.7-2.4-1.8
2017-Jun-16 03:00N 81°42' E 010°30'0 0.0 030 / 101005.3 -1.6-2.6-1.8
2017-Jun-16 02:00N 81°42' E 010°30'0 0.0 040 / 101005.0 -1.7-2.6-1.7
2017-Jun-16 01:00N 81°42' E 010°30'0 0.0 050 / 81005.0 -1.9-2.6-1.8
2017-Jun-16 00:00N 81°42' E 010°30'1 0.9 050 / 121004.7 -1.7-3.6-1.8
2017-Jun-15 23:00N 81°42' E 010°36'0 0.0 020 / 61004.6 -2.0-3.6-1.8
2017-Jun-15 22:00N 81°42' E 010°36'0 0.0 040 / 81004.3 -2.2-3.5-1.8
2017-Jun-15 21:00N 81°42' E 010°36'1 0.9 060 / 101004.1 -2.1-2.6-1.7
2017-Jun-15 20:00N 81°42' E 010°42'0 0.0 050 / 41003.8 -1.1-1.3-1.8
2017-Jun-15 19:00N 81°42' E 010°42'0 0.0 060 / 21003.7 -0.8-1.9-1.8
2017-Jun-15 18:00N 81°42' E 010°42'0 0.0 090 / 41003.6 5.4 -0.9-1.8-1.7
2017-Jun-15 17:00N 81°42' E 010°42'1 0.9 100 / 61003.7 -0.8-1.7-1.8
2017-Jun-15 16:00N 81°42' E 010°48'0 0.0 360 / 61003.4 -1.0-1.3-1.8
2017-Jun-15 15:00N 81°42' E 010°48'0 0.0 360 / 61003.5 1.1 -1.1-1.5-1.8
2017-Jun-15 14:00N 81°42' E 010°48'0 0.0 020 / 61003.4 -0.9-1.8-1.8
2017-Jun-15 13:00N 81°42' E 010°48'0 0.0 020 / 61003.5 -1.0-2.0-1.8
2017-Jun-15 12:00N 81°42' E 010°48'0 0.0 020 / 61003.4 5.4 -1.0-2.0-1.7
2017-Jun-15 11:00N 81°42' E 010°48'0 0.0 020 / 61003.5 -1.0-2.4-1.8
2017-Jun-15 10:00N 81°42' E 010°48'1 0.9 030 / 61003.3 -1.1-2.7-1.8
2017-Jun-15 09:00N 81°42' E 010°54'0 0.0 020 / 61003.4 5.4 -1.2-2.8-1.8
2017-Jun-15 08:00N 81°42' E 010°54'0 0.0 360 / 81003.3 -1.5-2.3-1.8
2017-Jun-15 07:00N 81°42' E 010°54'0 0.0 360 / 61003.2 -1.6-2.4-1.8
2017-Jun-15 06:00N 81°42' E 010°54'1 0.9 010 / 61003.1 5.4 -1.7-2.4-1.8
2017-Jun-15 05:00N 81°42' E 010°48'0 0.0 020 / 81003.3 -1.7-2.4-1.6
2017-Jun-15 04:00N 81°42' E 010°48'   010 / 81003.4 -2.0-2.3-1.6
Track history (hours):
 
Tides and Currents Weather Stations Pressure Air Temp Water Temp Dewpoint Dewpoint Depression Visibility Wind Speed Wind Dir Waves Ship Positions

Oceanographic research ship Polarstern (Germany)

Detailed information on ship capabilities available from University of Delaware's Ocean Information Center and ARCUS's ALIAS (Arctic Logistics Information and Support) project.

Last reported at 2017-Jun-25 04:00 UTC. Time now 2017-Jun-25 05:20 UTC.
Position N 77°24' E 028°48'.

Length 117.9 m; beam 25 m; draft 10.7 m.

MMSI: 211202460.

Wind from 110 at 6 knots

Barometer 1010.9 mb
Air temperature -1.2 ° C
Dewpoint -2.0 ° C
Water temperature -0.8 ° C

Date/timePositionNaut miles runAvg speedWind from/ knotsBaromVisibWave heightAir tempDewpointWater temp
2017-Jun-25 04:00N 77°24' E 028°48'1313.1 110 / 61010.9 -1.2-2.0-0.8
2017-Jun-25 03:00N 77°12' E 028°24'9 9.0 060 / 81010.7 -1.1-1.6 1.1
2017-Jun-25 02:00N 77°06' E 027°54'7 7.2 050 / 81010.7 -1.3-1.3-0.2
2017-Jun-25 01:00N 77°00' E 027°36'7 7.2 020 / 81010.7 -1.1-1.2-0.4
2017-Jun-25 00:00N 76°54' E 027°18'1312.7 020 / 101010.5 -0.3-0.6 1.8
2017-Jun-24 23:00N 76°42' E 027°00'7 6.6 020 / 101010.4 -0.5-0.7-0.7
2017-Jun-24 22:00N 76°36' E 026°48'7 7.3 010 / 81010.4 -0.8-0.8-0.7
2017-Jun-24 21:00N 76°30' E 026°30'7 7.3 010 / 101010.3 -0.9-1.6-1.1
2017-Jun-24 20:00N 76°24' E 026°12'1312.7 020 / 121010.0 -0.2-2.7 1.7
2017-Jun-24 19:00N 76°12' E 025°54'1010.0 050 / 121010.0 0.2-1.8 1.8
2017-Jun-24 18:00N 76°12' E 025°12'9 8.6 040 / 121010.010.8 -0.7-2.1-0.8
2017-Jun-24 17:00N 76°12' E 024°36'1010.0 020 / 101010.0 -0.7-1.9-0.7
2017-Jun-24 16:00N 76°12' E 023°54'1111.4 050 / 81010.1 -0.6-2.3-0.1
2017-Jun-24 15:00N 76°12' E 023°06'1010.0 080 / 81010.310.8 -0.6-1.7-0.5
2017-Jun-24 14:00N 76°12' E 022°24'1010.0 070 / 61010.1 -0.5-1.5 0.8
2017-Jun-24 13:00N 76°12' E 021°42'1111.4 070 / 61009.9 0.4-0.8 1.6
2017-Jun-24 12:00N 76°12' E 020°54'9 8.6 080 / 61010.010.8 0.7-0.3 1.8
2017-Jun-24 11:00N 76°12' E 020°18'6 5.7 050 / 81009.8 1.2 0.6 1.7
2017-Jun-24 10:00N 76°12' E 019°54'3 2.9 040 / 81009.8 1.4 0.3 3.6
2017-Jun-24 09:00N 76°12' E 019°42'1010.0 070 / 81009.910.8 1.5 0.3 3.6
2017-Jun-24 08:00N 76°12' E 019°00'1111.4 080 / 81009.8 1.8-0.3 4.0
2017-Jun-24 07:00N 76°12' E 018°12'1010.0 110 / 81009.7 2.5-0.6 3.9
2017-Jun-24 06:00N 76°12' E 017°30'1010.0 070 / 41009.910.8 2.2 0.7 3.4
2017-Jun-24 05:00N 76°12' E 016°48'9 8.6 090 / 41009.7 2.8 0.4 4.7
2017-Jun-24 04:00N 76°12' E 016°12'1413.9 140 / 61010.0 2.6 1.1 3.0
2017-Jun-24 03:00N 76°24' E 015°42'9 9.2 180 / 61010.1 2.8 1.3 4.4
2017-Jun-24 02:00N 76°30' E 015°12'8 8.2 330 / 21010.3 3.1 2.6 3.9
2017-Jun-24 01:00N 76°36' E 014°48'1413.8 330 / 61010.5 3.4 2.7 3.7
2017-Jun-24 00:00N 76°48' E 014°18'8 8.1 340 / 101010.8 3.6 2.2 2.1
2017-Jun-23 23:00N 76°54' E 013°54'1313.2 330 / 121010.9 3.9 2.2 3.4
2017-Jun-23 22:00N 77°06' E 013°30'9 9.0 340 / 101011.1 3.7 2.4 4.4
2017-Jun-23 21:00N 77°12' E 013°00'1212.3 330 / 121011.6 4.0 2.2 4.0
2017-Jun-23 20:00N 77°24' E 012°48'7 6.5 320 / 141011.8 3.6 1.6 4.5
2017-Jun-23 19:00N 77°30' E 012°36'1312.6 320 / 141012.0 3.6 1.6 5.1
2017-Jun-23 18:00N 77°42' E 012°18'1212.3 320 / 141012.210.8 3.8 2.2 5.3
2017-Jun-23 17:00N 77°54' E 012°06'1110.6 320 / 171012.4 3.7 1.6 4.3
2017-Jun-23 16:00N 78°00' E 012°48'10 9.6 320 / 161011.9 3.8 2.2 5.3
2017-Jun-23 15:00N 78°06' E 013°24'1211.5 300 / 121011.710.8 3.7 1.8 4.2
2017-Jun-23 14:00N 78°12' E 014°12'10 9.8 240 / 81011.9 5.3 1.7 4.9
2017-Jun-23 13:00N 78°12' E 015°00'9 8.6 230 / 41012.1 5.3 0.3 5.0
2017-Jun-23 12:00N 78°12' E 015°42'0 0.0 310 / 101011.9 5.0 0.1 3.1
2017-Jun-23 11:00N 78°12' E 015°42'0 0.0 310 / 101011.9 4.8 0.9 3.5
2017-Jun-23 10:00N 78°12' E 015°42'0 0.0 310 / 101011.8 4.6 0.8 3.4
2017-Jun-23 09:00N 78°12' E 015°42'0 0.0 310 / 101011.8 4.3 0.6 3.5
2017-Jun-23 08:00N 78°12' E 015°42'0 0.0 300 / 61011.8 4.5 0.1 3.5
2017-Jun-23 07:00N 78°12' E 015°42'0 0.0 300 / 81011.6 4.2-0.3 3.4
2017-Jun-23 06:00N 78°12' E 015°42'0 0.0 300 / 61011.5 4.0-0.6 3.4
2017-Jun-23 05:00N 78°12' E 015°42'0 0.0 300 / 61011.6 3.9-0.8 3.5
2017-Jun-23 04:00N 78°12' E 015°42'0 0.0 300 / 61011.7 3.9-1.0 3.7
2017-Jun-23 03:00N 78°12' E 015°42'0 0.0 320 / 41011.5 3.9-1.4 3.6
2017-Jun-23 02:00N 78°12' E 015°42'0 0.0 270 / 41011.5 3.9-1.0 3.7
2017-Jun-23 01:00N 78°12' E 015°42'0 0.0 250 / 61011.5 3.8-0.8 3.9
2017-Jun-23 00:00N 78°12' E 015°42'0 0.0 260 / 41011.3 3.8-0.9 3.9
2017-Jun-22 23:00N 78°12' E 015°42'0 0.0 260 / 61011.2 3.8-1.4 3.8
2017-Jun-22 22:00N 78°12' E 015°42'0 0.0 350 / 21011.2 3.9-1.2 3.8
2017-Jun-22 21:00N 78°12' E 015°42'0 0.0 290 / 61011.3 3.7-0.7 3.9
2017-Jun-22 20:00N 78°12' E 015°42'0 0.0 280 / 81011.6 3.7-0.4 3.8
2017-Jun-22 19:00N 78°12' E 015°42'0 0.0 290 / 101011.6 3.7-0.8 4.6
2017-Jun-22 18:00N 78°12' E 015°42'0 0.0 280 / 101011.6 3.8-0.8 4.8
2017-Jun-22 17:00N 78°12' E 015°42'0 0.0 280 / 101011.8 4.1-0.9 4.7
2017-Jun-22 16:00N 78°12' E 015°42'0 0.0 270 / 101011.9 3.9-1.0 4.8
2017-Jun-22 15:00N 78°12' E 015°42'0 0.0 290 / 121011.9 3.8-0.9 4.9
2017-Jun-22 14:00N 78°12' E 015°42'0 0.0 300 / 121012.1 3.7-1.1 4.9
2017-Jun-22 13:00N 78°12' E 015°42'0 0.0 280 / 121012.2 3.9-1.0 4.9
2017-Jun-22 12:00N 78°12' E 015°42'0 0.0 270 / 121012.5 3.6-1.3 4.8
2017-Jun-22 11:00N 78°12' E 015°42'0 0.0 270 / 141012.4 3.4-1.8 5.1
2017-Jun-22 10:00N 78°12' E 015°42'0 0.0 260 / 161012.4 3.1-1.7 5.2
2017-Jun-22 09:00N 78°12' E 015°42'0 0.0 250 / 141012.5 3.2-1.5 5.2
2017-Jun-22 08:00N 78°12' E 015°42'0 0.0 250 / 121012.5 3.1-1.4 5.2
2017-Jun-22 07:00N 78°12' E 015°42'0 0.0 240 / 121012.7 3.3-1.2 5.1
2017-Jun-22 06:00N 78°12' E 015°42'0 0.0 250 / 101012.8 3.0-1.2 4.1
2017-Jun-22 05:00N 78°12' E 015°42'0 0.0 250 / 121013.1 2.9-1.0 3.8
2017-Jun-22 04:00N 78°12' E 015°42'0 0.0 250 / 161013.0 2.8-0.4 4.2
2017-Jun-22 03:00N 78°12' E 015°42'0 0.0 260 / 141012.8 3.0-0.1 4.4
2017-Jun-22 02:00N 78°12' E 015°42'0 0.0 250 / 101013.0 3.2-0.6 5.0
2017-Jun-22 01:00N 78°12' E 015°42'0 0.0 260 / 141013.1 3.3-0.5 5.1
2017-Jun-22 00:00N 78°12' E 015°42'0 0.0 240 / 141013.0 3.6-0.0 4.4
2017-Jun-21 23:00N 78°12' E 015°42'0 0.0 240 / 141013.3 3.9-0.3 3.7
2017-Jun-21 22:00N 78°12' E 015°42'0 0.0 250 / 121013.0 4.5-0.3 3.4
2017-Jun-21 21:00N 78°12' E 015°42'0 0.0 220 / 41012.8 5.3 0.1 3.2
2017-Jun-21 20:00N 78°12' E 015°42'0 0.0 230 / 81012.6 5.6-0.3 3.1
2017-Jun-21 19:00N 78°12' E 015°42'0 0.0 230 / 141012.7 5.6-0.4 3.0
2017-Jun-21 18:00N 78°12' E 015°42'0 0.0 250 / 161012.8 5.5-0.2 3.1
2017-Jun-21 17:00N 78°12' E 015°42'0 0.0 230 / 191012.7 5.6 0.1 3.1
2017-Jun-21 16:00N 78°12' E 015°42'0 0.0 230 / 161012.7 5.7 0.7 3.4
2017-Jun-21 15:00N 78°12' E 015°42'0 0.0 300 / 121013.0 6.5-0.7 3.4
2017-Jun-21 14:00N 78°12' E 015°42'0 0.0 300 / 141012.7 6.2-0.4 3.3
2017-Jun-21 13:00N 78°12' E 015°42'0 0.0 310 / 141012.9 6.0-1.5 3.4
2017-Jun-21 12:00N 78°12' E 015°42'0 0.0 310 / 101012.5 5.6-0.4 3.4
2017-Jun-21 11:00N 78°12' E 015°42'0 0.0 320 / 121012.3 5.4-0.0 3.3
2017-Jun-21 10:00N 78°12' E 015°42'0 0.0 300 / 101011.9 5.6-0.0 3.3
2017-Jun-21 09:00N 78°12' E 015°42'0 0.0 300 / 101012.0 5.7-0.1 3.0
2017-Jun-21 08:00N 78°12' E 015°42'0 0.0 300 / 81011.8 5.3 0.1 2.7
2017-Jun-21 07:00N 78°12' E 015°42'0 0.0 330 / 81011.8 5.1-0.1 2.5
2017-Jun-21 06:00N 78°12' E 015°42'8 7.7 330 / 81011.6 4.9 1.3 2.8
2017-Jun-21 05:00N 78°18' E 015°18'9 8.6 230 / 81011.6 4.4 2.4 4.7
2017-Jun-21 04:00N 78°12' E 014°48'6 6.1 230 / 81011.3 4.5 2.8 4.2
2017-Jun-21 03:00N 78°12' E 014°18'9 8.6 210 / 61011.2 4.1 2.1 3.7
2017-Jun-21 02:00N 78°06' E 013°48'5 4.9 310 / 121011.2 3.7 1.6 3.9
2017-Jun-21 01:00N 78°06' E 013°24'6 6.2 320 / 171011.0 2.8 1.1 3.2
2017-Jun-21 00:00N 78°06' E 012°54'6 6.2 320 / 171011.3 3.0 1.1 4.2
2017-Jun-20 23:00N 78°06' E 012°24'6 6.2 320 / 171011.3 2.9 1.5 4.7
2017-Jun-20 22:00N 78°06' E 011°54'6 6.2 320 / 191011.2 2.6 1.0 5.0
2017-Jun-20 21:00N 78°06' E 011°24'5 4.9 320 / 161011.3 2.7 1.4 5.1
2017-Jun-20 20:00N 78°06' E 011°00'7 7.0 330 / 161011.3 2.8 1.2 3.8
2017-Jun-20 19:00N 78°12' E 010°42'8 7.7 330 / 161011.3 2.9 1.0 4.7
2017-Jun-20 18:00N 78°18' E 010°18'4 3.7 340 / 171011.210.8 3.0 0.7 4.4
2017-Jun-20 17:00N 78°18' E 010°00'6 6.5 340 / 161011.0 4.5-0.0 4.5
2017-Jun-20 16:00N 78°24' E 009°48'6 6.1 330 / 171011.0 3.6-0.4 3.5
2017-Jun-20 15:00N 78°30' E 009°42'6 6.5 320 / 171010.910.8 3.9-0.6 4.6
2017-Jun-20 14:00N 78°36' E 009°30'6 6.1 320 / 141010.9 3.2 0.6 4.1
2017-Jun-20 13:00N 78°42' E 009°24'6 6.0
2017-Jun-20 12:00N 78°48' E 009°24'6 6.0 340 / 141010.410.8 2.3 0.4 4.6
2017-Jun-20 11:00N 78°54' E 009°24'6 6.1 350 / 141010.3 1.8-0.2 4.7
2017-Jun-20 10:00N 79°00' E 009°18'0 0.0 350 / 161010.0 1.5-0.6 4.7
2017-Jun-20 09:00N 79°00' E 009°18'0 0.0 350 / 171009.610.8 1.5-0.7 4.8
2017-Jun-20 08:00N 79°00' E 009°18'0 0.0 350 / 171009.1 1.5-0.9 4.7
2017-Jun-20 07:00N 79°00' E 009°18'0 0.0 350 / 211008.6 1.7-0.2 4.8
2017-Jun-20 06:00N 79°00' E 009°18'3 3.4 350 / 191008.210.8 1.7-0.4 4.8
2017-Jun-20 05:00N 79°00' E 009°00'7 6.9 360 / 191007.9 1.5-1.0 5.2
2017-Jun-20 04:00N 78°54' E 008°42'3 3.5 350 / 191008.3 1.3-1.1 4.7
2017-Jun-20 03:00N 78°54' E 008°24'5 4.6 350 / 191008.4 1.3-1.0 5.4
2017-Jun-20 02:00N 78°54' E 008°00'5 4.6 350 / 191008.6 1.1-0.7 5.7
2017-Jun-20 01:00N 78°54' E 007°36'3 3.5 350 / 141008.7 1.8-0.6 5.7
2017-Jun-20 00:00N 78°54' E 007°18'7 6.9 350 / 141008.8 1.3-0.6 3.8
2017-Jun-19 23:00N 78°48' E 007°00'2 2.3 360 / 161008.9 1.5-0.8 5.8
2017-Jun-19 22:00N 78°48' E 006°48'3 3.5 340 / 141008.9 1.8-0.4 5.8
2017-Jun-19 21:00N 78°48' E 006°30'3 3.5 340 / 121009.2 0.7 0.1 5.8
2017-Jun-19 20:00N 78°48' E 006°12'3 3.5 340 / 121009.1 0.6-0.1 5.9
2017-Jun-19 19:00N 78°48' E 005°54'7 7.0 330 / 141009.3 0.2-0.3 5.8
2017-Jun-19 18:00N 78°42' E 005°36'4 3.5 320 / 121009.410.8 -0.0-0.5 4.1
2017-Jun-19 17:00N 78°42' E 005°18'4 3.5 330 / 101009.6 -0.9-1.1 4.5
2017-Jun-19 16:00N 78°42' E 005°00'4 3.5 340 / 81009.7 0.1-0.4 4.2
2017-Jun-19 15:00N 78°42' E 004°42'1 1.2 340 / 101009.6 1.1 -1.0-1.1 4.2
2017-Jun-19 14:00N 78°42' E 004°36'0 0.0 350 / 101009.5 -1.3-1.6 4.3
2017-Jun-19 13:00N 78°42' E 004°36'6 6.4 350 / 81009.5 -0.8-1.3 4.4
2017-Jun-19 12:00N 78°36' E 004°24'6 6.0 350 / 141009.210.8 -0.0-0.9 4.5
2017-Jun-19 11:00N 78°30' E 004°24'6 6.0 360 / 161009.0 0.1-0.4 3.9
2017-Jun-19 10:00N 78°24' E 004°24'6 6.5 360 / 161008.6 0.2-0.8 5.4
2017-Jun-19 09:00N 78°30' E 004°12'4 3.6 350 / 101008.810.8 0.1-0.8 4.7
2017-Jun-19 08:00N 78°30' E 003°54'6 6.5 010 / 81008.5 -0.0-1.0 1.6
2017-Jun-19 07:00N 78°36' E 003°42'6 6.4 340 / 61008.5 1.1-0.6 3.3
2017-Jun-19 06:00N 78°42' E 003°30'5 4.7 280 / 41008.310.8 -0.2-1.4 2.7
2017-Jun-19 05:00N 78°42' E 003°54'8 7.6 020 / 61008.4 -0.2-1.5 4.5
2017-Jun-19 04:00N 78°48' E 004°18'8 8.3 340 / 61008.3 -1.0-2.0 4.2
2017-Jun-19 03:00N 78°54' E 004°48'8 8.3 320 / 81008.3 -1.6-2.4 0.6
2017-Jun-19 02:00N 79°00' E 005°18'7 6.9 320 / 81008.4 -1.6-2.1 3.6
2017-Jun-19 01:00N 79°06' E 005°36'10 9.9 310 / 61008.4 -0.8-0.9 4.9
2017-Jun-19 00:00N 79°12' E 006°18'9 9.0 330 / 61008.5 1.2-0.1 5.5
2017-Jun-18 23:00N 79°18' E 006°54'7 7.5 030 / 41008.6 0.5-0.3 2.6
2017-Jun-18 22:00N 79°24' E 007°18'7 7.4 030 / 81008.4 0.8-0.4 2.1
2017-Jun-18 21:00N 79°30' E 007°42'7 6.8 020 / 81008.3 0.2-0.4 3.3
2017-Jun-18 20:00N 79°36' E 008°00'6 6.4 030 / 81008.5 0.4-0.4 1.9
2017-Jun-18 19:00N 79°42' E 008°12'7 7.4 030 / 81008.3 0.8-0.0-0.3
2017-Jun-18 18:00N 79°48' E 008°36'7 7.3 030 / 81008.310.8 2.3-0.4 1.5
2017-Jun-18 17:00N 79°54' E 009°00'8 8.0 060 / 61008.6 0.8-0.7 3.2
2017-Jun-18 16:00N 80°00' E 009°30'6 6.1 030 / 61008.6 -0.0-1.2 1.1
2017-Jun-18 15:00N 80°06' E 009°36'2 2.1 020 / 81008.8 5.4 -1.8-1.8 3.4
2017-Jun-18 14:00N 80°06' E 009°48'4 4.1 040 / 41008.7 -0.1-1.9-0.7
2017-Jun-18 13:00N 80°06' E 010°12'8 7.9 040 / 21008.8 -0.6-1.5 0.4
2017-Jun-18 12:00N 80°12' E 010°42'0 0.0 150 / 41008.627.0 1.0-1.4 1.8
2017-Jun-18 11:00N 80°12' E 010°42'1 1.0 140 / 21008.6 2.2-1.4 1.5
2017-Jun-18 10:00N 80°12' E 010°48'7 7.2 200 / 41008.3 0.8-1.4 3.7
2017-Jun-18 09:00N 80°18' E 011°12'4 4.0 220 / 41008.227.0 0.6-1.8 3.0
2017-Jun-18 08:00N 80°18' E 011°36'0 0.0 250 / 21008.1 0.4-1.4 3.2
2017-Jun-18 07:00N 80°18' E 011°36'6 6.1 240 / 41008.0 -0.4-2.8 2.7
2017-Jun-18 06:00N 80°24' E 011°30'6 6.1 250 / 61007.810.8 -0.9-1.9 0.8
2017-Jun-18 05:00N 80°30' E 011°24'0 0.0 240 / 81007.6 -1.0-1.8-0.5
2017-Jun-18 04:00N 80°30' E 011°24'0 0.0 230 / 81007.6 -1.1-1.9-0.6
2017-Jun-18 03:00N 80°30' E 011°24'6 6.1 220 / 81007.6 -1.4-2.0-1.7
2017-Jun-18 02:00N 80°36' E 011°18'1 1.0 230 / 101007.9 -1.4-2.1-1.6
2017-Jun-18 01:00N 80°36' E 011°12'1 1.0 230 / 101008.1 -1.6-2.2-1.7
2017-Jun-18 00:00N 80°36' E 011°06'1 1.0 220 / 81008.0 -1.5-1.6-1.7
2017-Jun-17 23:00N 80°36' E 011°00'6 6.3 220 / 101007.9 -1.8-2.0-1.7
2017-Jun-17 22:00N 80°42' E 010°48'2 1.9 220 / 101007.7 -1.7-2.2-1.7
2017-Jun-17 21:00N 80°42' E 011°00'6 6.1 230 / 101007.9 -1.8-2.9-1.7
2017-Jun-17 20:00N 80°48' E 010°54'0 0.0 230 / 101007.9 -1.7-3.0-1.7
2017-Jun-17 19:00N 80°48' E 010°54'1 1.0 230 / 101008.0 -1.6-2.8-1.7
2017-Jun-17 18:00N 80°48' E 010°48'7 6.6 230 / 81007.910.8 -1.8-2.6-1.7
2017-Jun-17 17:00N 80°54' E 010°30'6 6.3 250 / 101008.2 -1.8-3.9-1.7
2017-Jun-17 16:00N 81°00' E 010°18'1 0.9 230 / 101008.3 -1.8-3.5-1.7
2017-Jun-17 15:00N 81°00' E 010°24'0 0.0 230 / 61008.710.8 -2.1-4.0-1.6
2017-Jun-17 14:00N 81°00' E 010°24'0 0.0 250 / 121008.6 -2.6-4.5-1.5
2017-Jun-17 13:00N 81°00' E 010°24'0 0.0 260 / 121008.9 -2.4-4.3-1.7
2017-Jun-17 12:00N 81°00' E 010°24'1 0.9 260 / 101008.810.8 -2.3-4.1-1.7
2017-Jun-17 11:00N 81°00' E 010°30'0 0.0 260 / 101009.1 -2.4-4.6-1.7
2017-Jun-17 10:00N 81°00' E 010°30'0 0.0 250 / 101008.9 -2.1-3.5-1.7
2017-Jun-17 09:00N 81°00' E 010°30'0 0.0 260 / 101009.110.8 -2.2-3.5-1.7
2017-Jun-17 08:00N 81°00' E 010°30'6 6.3 270 / 121009.2 -2.4-4.0-1.7
2017-Jun-17 07:00N 81°06' E 010°18'1 0.9 250 / 101009.2 -2.8-4.0-1.7
2017-Jun-17 06:00N 81°06' E 010°12'1 0.9 250 / 101009.310.8 -2.6-3.5-1.8
2017-Jun-17 05:00N 81°06' E 010°06'6 6.1 260 / 121009.2 -2.4-3.4-1.7
2017-Jun-17 04:00N 81°12' E 010°00'1 0.9 270 / 121009.3 -2.2-3.3-1.7
2017-Jun-17 03:00N 81°12' E 010°06'0 0.0 270 / 101009.3 -1.9-3.3-1.7
2017-Jun-17 02:00N 81°12' E 010°06'6 6.1 260 / 101009.5 -1.8-3.6-1.7
2017-Jun-17 01:00N 81°18' E 010°00'0 0.0 250 / 101009.7 -1.8-3.8-1.7
2017-Jun-17 00:00N 81°18' E 010°00'1 0.9 260 / 101009.7 -1.7-3.7-1.7
2017-Jun-16 23:00N 81°18' E 010°06'6 6.3 260 / 101009.5 -1.7-3.8-1.7
2017-Jun-16 22:00N 81°24' E 009°54'1 0.9 260 / 101009.5 -1.5-3.7-1.7
2017-Jun-16 21:00N 81°24' E 010°00'6 6.1 260 / 81009.5 -1.6-3.8-1.8
2017-Jun-16 20:00N 81°30' E 010°06'1 0.9 270 / 81009.3 -1.5-4.2-1.8
2017-Jun-16 19:00N 81°30' E 010°12'6 6.1 280 / 61009.1 -1.4-4.2-1.7
2017-Jun-16 18:00N 81°36' E 010°06'2 1.8 300 / 41009.210.8 -1.6-3.5-1.8
2017-Jun-16 17:00N 81°36' E 010°18'6 6.2 330 / 61009.1 -1.8-3.7-1.8
2017-Jun-16 16:00N 81°42' E 010°30'1 0.9 360 / 81008.9 -1.8-4.0-1.8
2017-Jun-16 15:00N 81°42' E 010°24'1 0.9 340 / 81008.6 5.4 -2.2-5.2-1.7
2017-Jun-16 14:00N 81°42' E 010°30'0 0.0 330 / 101008.6 -2.2-4.5-1.8
2017-Jun-16 13:00N 81°42' E 010°30'0 0.0 340 / 101008.6 -2.0-4.2-1.8
2017-Jun-16 12:00N 81°42' E 010°30'0 0.0 340 / 101008.410.8 -2.0-4.3-1.8
2017-Jun-16 11:00N 81°42' E 010°30'0 0.0 330 / 81008.1 -1.8-4.2-1.8
2017-Jun-16 10:00N 81°42' E 010°30'0 0.0 340 / 61007.7 -1.7-4.2-1.8
2017-Jun-16 09:00N 81°42' E 010°30'0 0.0 360 / 61007.410.8 -1.6-4.6-1.7
2017-Jun-16 08:00N 81°42' E 010°30'0 0.0 030 / 61007.1 -1.8-3.6-1.8
2017-Jun-16 07:00N 81°42' E 010°30'0 0.0 040 / 81006.7 -1.8-3.3-1.8
2017-Jun-16 06:00N 81°42' E 010°30'0 0.0 040 / 101006.4 5.4 -2.0-2.7-1.8
2017-Jun-16 05:00N 81°42' E 010°30'0 0.0 030 / 101005.9 -1.9-2.7-1.8
2017-Jun-16 04:00N 81°42' E 010°30'0 0.0 030 / 101005.6 -1.7-2.4-1.8
2017-Jun-16 03:00N 81°42' E 010°30'0 0.0 030 / 101005.3 -1.6-2.6-1.8
2017-Jun-16 02:00N 81°42' E 010°30'0 0.0 040 / 101005.0 -1.7-2.6-1.7
2017-Jun-16 01:00N 81°42' E 010°30'0 0.0 050 / 81005.0 -1.9-2.6-1.8
2017-Jun-16 00:00N 81°42' E 010°30'1 0.9 050 / 121004.7 -1.7-3.6-1.8
2017-Jun-15 23:00N 81°42' E 010°36'0 0.0 020 / 61004.6 -2.0-3.6-1.8
2017-Jun-15 22:00N 81°42' E 010°36'0 0.0 040 / 81004.3 -2.2-3.5-1.8
2017-Jun-15 21:00N 81°42' E 010°36'1 0.9 060 / 101004.1 -2.1-2.6-1.7
2017-Jun-15 20:00N 81°42' E 010°42'0 0.0 050 / 41003.8 -1.1-1.3-1.8
2017-Jun-15 19:00N 81°42' E 010°42'0 0.0 060 / 21003.7 -0.8-1.9-1.8
2017-Jun-15 18:00N 81°42' E 010°42'0 0.0 090 / 41003.6 5.4 -0.9-1.8-1.7
2017-Jun-15 17:00N 81°42' E 010°42'1 0.9 100 / 61003.7 -0.8-1.7-1.8
2017-Jun-15 16:00N 81°42' E 010°48'0 0.0 360 / 61003.4 -1.0-1.3-1.8
2017-Jun-15 15:00N 81°42' E 010°48'0 0.0 360 / 61003.5 1.1 -1.1-1.5-1.8
2017-Jun-15 14:00N 81°42' E 010°48'0 0.0 020 / 61003.4 -0.9-1.8-1.8
2017-Jun-15 13:00N 81°42' E 010°48'0 0.0 020 / 61003.5 -1.0-2.0-1.8
2017-Jun-15 12:00N 81°42' E 010°48'0 0.0 020 / 61003.4 5.4 -1.0-2.0-1.7
2017-Jun-15 11:00N 81°42' E 010°48'0 0.0 020 / 61003.5 -1.0-2.4-1.8
2017-Jun-15 10:00N 81°42' E 010°48'1 0.9 030 / 61003.3 -1.1-2.7-1.8
2017-Jun-15 09:00N 81°42' E 010°54'0 0.0 020 / 61003.4 5.4 -1.2-2.8-1.8
2017-Jun-15 08:00N 81°42' E 010°54'0 0.0 360 / 81003.3 -1.5-2.3-1.8
2017-Jun-15 07:00N 81°42' E 010°54'0 0.0 360 / 61003.2 -1.6-2.4-1.8
2017-Jun-15 06:00N 81°42' E 010°54'1 0.9 010 / 61003.1 5.4 -1.7-2.4-1.8
2017-Jun-15 05:00N 81°42' E 010°48'0 0.0 020 / 81003.3 -1.7-2.4-1.6
2017-Jun-15 04:00N 81°42' E 010°48'   010 / 81003.4 -2.0-2.3-1.6

Dump ship's entire track history